Time;durP1;ratioP1;P1;durP2;ratioP2;P2;SDS_P1;SDS_P2;PMS_P1;PMS_P2;Temp;Humidity;BMP_temperature;BMP_pressure;BME280_temperature;BME280_humidity;BME280_pressure;Samples;Min_cycle;Max_cycle;Signal;HPM_P1;HPM_P2
2023/08/04 00:05:27;;;;;;;8.10;2.67;;;;;;;16.86;65.16;99858.38;20768117;28;20274;-80
2023/08/04 00:15:29;;;;;;;4.80;1.85;;;;;;;16.42;65.84;99861.69;20767767;28;20193;-81
2023/08/04 00:25:32;;;;;;;6.35;2.90;;;;;;;16.10;68.86;99863.16;20756919;28;20290;-80
2023/08/04 00:35:35;;;;;;;10.57;4.35;;;;;;;16.73;66.41;99865.47;20767290;28;20192;-81
2023/08/04 00:45:38;;;;;;;9.32;3.53;;;;;;;16.49;67.98;99880.88;20771689;28;20209;-81
2023/08/04 00:55:42;;;;;;;7.50;3.78;;;;;;;16.07;69.20;99887.44;20793158;28;20250;-81
2023/08/04 01:05:51;;;;;;;6.78;3.88;;;;;;;16.15;69.13;99894.06;20742682;28;20274;-81
2023/08/04 01:15:56;;;;;;;11.65;4.90;;;;;;;16.20;69.32;99902.28;20766427;28;20248;-81
2023/08/04 01:25:59;;;;;;;13.40;4.87;;;;;;;16.14;69.63;99900.94;20766184;28;20698;-81
2023/08/04 01:36:02;;;;;;;8.35;4.25;;;;;;;16.05;69.82;99906.88;20756989;28;20227;-81
2023/08/04 01:46:05;;;;;;;10.32;4.78;;;;;;;16.14;68.99;99913.13;20761223;28;20228;-81
2023/08/04 01:56:08;;;;;;;6.77;4.13;;;;;;;16.03;69.43;99925.47;20775694;28;20251;-80
2023/08/04 02:06:12;;;;;;;9.25;4.40;;;;;;;16.01;69.43;99922.19;20768671;28;20232;-80
2023/08/04 02:16:14;;;;;;;10.20;4.82;;;;;;;16.22;68.90;99927.47;20780056;28;20204;-81
2023/08/04 02:26:17;;;;;;;16.17;5.45;;;;;;;16.47;67.94;99940.09;20759956;28;20255;-81
2023/08/04 02:36:20;;;;;;;18.23;6.70;;;;;;;16.34;68.39;99938.63;20767226;28;20589;-80
2023/08/04 02:46:25;;;;;;;11.63;7.07;;;;;;;16.50;68.57;99937.31;20780736;28;20250;-80
2023/08/04 02:56:28;;;;;;;12.20;6.78;;;;;;;15.79;69.93;99944.47;20796601;28;20200;-82
2023/08/04 03:06:31;;;;;;;12.23;6.27;;;;;;;15.60;71.19;99944.41;20779313;28;20272;-81
2023/08/04 03:16:34;;;;;;;10.23;6.07;;;;;;;16.25;68.46;99963.59;20792432;28;20189;-80
2023/08/04 03:26:36;;;;;;;13.15;6.65;;;;;;;16.35;68.65;99966.66;20778153;28;20289;-80
2023/08/04 03:36:39;;;;;;;13.63;7.30;;;;;;;16.29;67.81;99975.84;20793731;28;20205;-80
2023/08/04 03:46:42;;;;;;;13.75;7.20;;;;;;;16.26;67.87;99974.56;20809621;28;20217;-80
2023/08/04 03:56:44;;;;;;;16.90;7.97;;;;;;;15.84;68.76;99985.09;20774741;28;20196;-80
2023/08/04 04:06:47;;;;;;;13.88;8.32;;;;;;;16.12;68.80;99997.00;20805581;28;20220;-80
2023/08/04 04:16:49;;;;;;;21.92;8.88;;;;;;;16.14;68.70;100000.28;20801064;28;20544;-77
2023/08/04 04:26:52;;;;;;;11.48;7.15;;;;;;;15.82;69.41;100008.16;20802082;28;20228;-77
2023/08/04 04:37:00;;;;;;;19.73;8.80;;;;;;;16.41;67.73;100016.25;20819589;28;20673;-77
2023/08/04 04:47:04;;;;;;;15.82;8.10;;;;;;;16.72;66.36;100025.78;20797613;28;20282;-78
2023/08/04 04:57:07;;;;;;;16.58;8.45;;;;;;;16.13;68.37;100022.19;20798663;28;20227;-79
2023/08/04 05:07:10;;;;;;;20.95;8.90;;;;;;;16.42;67.13;100034.94;20802681;28;20244;-78
2023/08/04 05:17:13;;;;;;;13.83;8.50;;;;;;;16.03;68.58;100039.00;20799715;28;20200;-77
2023/08/04 05:27:15;;;;;;;15.60;8.80;;;;;;;16.28;67.83;100045.19;20782411;28;20695;-78
2023/08/04 05:37:18;;;;;;;21.02;8.82;;;;;;;15.84;70.51;100047.50;20765988;28;20201;-77
2023/08/04 05:47:25;;;;;;;19.07;8.07;;;;;;;15.83;70.01;100055.19;20776507;28;20220;-78
2023/08/04 05:57:28;;;;;;;19.67;10.43;;;;;;;16.15;68.96;100070.06;20777510;28;20196;-78
2023/08/04 06:07:30;;;;;;;20.08;11.30;;;;;;;16.27;68.59;100072.75;20775404;28;20232;-78
2023/08/04 06:17:33;;;;;;;18.47;12.37;;;;;;;15.52;72.32;100092.13;20792383;28;20197;-77
2023/08/04 06:27:36;;;;;;;25.20;14.27;;;;;;;17.07;66.04;100093.81;20770516;28;20211;-79
2023/08/04 06:37:38;;;;;;;26.73;13.07;;;;;;;16.56;66.99;100101.78;20761251;28;20274;-78
2023/08/04 06:47:41;;;;;;;21.23;14.38;;;;;;;17.12;66.28;100107.72;20777792;28;20220;-78
2023/08/04 06:57:44;;;;;;;16.83;10.70;;;;;;;17.51;63.48;100114.13;20803172;28;20243;-78
2023/08/04 07:07:48;;;;;;;13.52;8.50;;;;;;;16.65;65.00;100128.75;20775117;28;20228;-78
2023/08/04 07:17:50;;;;;;;12.82;8.13;;;;;;;17.52;63.48;100133.66;20817793;28;20243;-78
2023/08/04 07:27:53;;;;;;;11.90;8.70;;;;;;;17.07;64.49;100140.13;20792943;28;20228;-78
2023/08/04 07:37:55;;;;;;;10.45;5.85;;;;;;;17.20;62.47;100147.28;20797381;28;20192;-78
2023/08/04 07:47:58;;;;;;;8.80;5.20;;;;;;;17.87;61.78;100141.91;20797115;28;20228;-78
2023/08/04 07:58:01;;;;;;;9.77;4.60;;;;;;;18.17;60.07;100142.00;20778974;28;20196;-79
2023/08/04 08:08:04;;;;;;;5.35;3.45;;;;;;;18.03;58.30;100153.19;20784801;28;20530;-79
2023/08/04 08:18:06;;;;;;;11.63;4.75;;;;;;;17.45;59.85;100163.97;20774450;28;20200;-79
2023/08/04 08:28:09;;;;;;;8.65;3.67;;;;;;;17.23;59.62;100161.97;20775023;28;20243;-79
2023/08/04 08:38:12;;;;;;;7.47;3.90;;;;;;;18.23;58.91;100166.06;20807562;28;20195;-79
2023/08/04 08:48:15;;;;;;;8.45;3.88;;;;;;;18.74;55.77;100168.41;20809930;28;20286;-79
2023/08/04 08:58:18;;;;;;;7.90;3.80;;;;;;;18.39;55.78;100185.84;20779835;28;20196;-80
2023/08/04 09:08:21;;;;;;;6.72;4.07;;;;;;;19.33;56.76;100176.03;20800696;28;20228;-79
2023/08/04 09:18:38;;;;;;;8.13;3.70;;;;;;;18.33;54.07;100193.06;20770825;28;20663;-80
2023/08/04 09:28:41;;;;;;;6.53;3.78;;;;;;;18.57;53.80;100189.75;20775056;28;20216;-80
2023/08/04 09:38:44;;;;;;;6.78;3.20;;;;;;;17.87;54.57;100201.69;20800777;28;20557;-78
2023/08/04 09:48:47;;;;;;;2.97;1.52;;;;;;;18.35;51.51;100193.50;20781605;28;20278;-79
2023/08/04 09:58:50;;;;;;;4.32;2.25;;;;;;;19.25;50.69;100190.56;20767106;28;20307;-80
2023/08/04 10:08:55;;;;;;;4.03;1.88;;;;;;;18.68;51.78;100207.03;20807822;28;20281;-80
2023/08/04 10:19:03;;;;;;;4.32;1.70;;;;;;;18.82;52.14;100209.22;20764439;28;20596;-80
2023/08/04 10:29:08;;;;;;;2.97;1.23;;;;;;;19.56;51.56;100201.50;20791119;28;20243;-79
2023/08/04 10:39:25;;;;;;;2.75;1.00;;;;;;;19.18;49.63;100199.06;20794591;28;20219;-80
2023/08/04 10:49:32;;;;;;;3.90;0.98;;;;;;;20.17;48.39;100202.84;20784236;28;20318;-80
2023/08/04 10:59:35;;;;;;;2.90;0.70;;;;;;;19.69;46.29;100213.44;20779285;28;20196;-80
2023/08/04 11:09:37;;;;;;;2.75;0.80;;;;;;;20.73;43.96;100201.56;20782559;28;20217;-80
2023/08/04 11:19:50;;;;;;;3.53;0.50;;;;;;;20.35;45.03;100203.78;20784142;28;20609;-80
2023/08/04 11:29:53;;;;;;;1.20;0.80;;;;;;;21.01;45.48;100201.66;20755791;28;20219;-79
2023/08/04 11:39:56;;;;;;;2.08;0.50;;;;;;;20.64;43.12;100215.41;20785486;28;20201;-80
2023/08/04 11:49:59;;;;;;;2.63;0.80;;;;;;;19.66;44.76;100211.38;20786375;28;20212;-78
2023/08/04 12:00:02;;;;;;;2.40;0.50;;;;;;;20.50;41.28;100216.13;20795406;28;20196;-79
2023/08/04 12:10:14;;;;;;;2.25;0.40;;;;;;;19.72;45.10;100229.81;20797199;28;20228;-78
2023/08/04 12:20:17;;;;;;;2.88;0.77;;;;;;;21.07;44.88;100216.38;20770125;28;20197;-79
2023/08/04 12:30:19;;;;;;;1.25;0.68;;;;;;;20.77;44.21;100236.72;20776924;28;20228;-79
2023/08/04 12:40:22;;;;;;;1.80;0.47;;;;;;;21.90;38.81;100227.66;20782459;28;20246;-79
2023/08/04 12:50:25;;;;;;;0.65;0.47;;;;;;;21.98;38.48;100223.53;20783477;28;20695;-79
2023/08/04 13:00:28;;;;;;;3.60;0.30;;;;;;;21.77;39.50;100221.47;20792716;28;20605;-79
2023/08/04 13:10:31;;;;;;;1.30;0.70;;;;;;;20.70;44.00;100237.50;20790743;28;20224;-79
2023/08/04 13:20:39;;;;;;;2.80;1.02;;;;;;;20.35;49.54;100237.25;20787058;28;20250;-80
2023/08/04 13:30:43;;;;;;;2.83;0.95;;;;;;;21.79;44.26;100244.00;20810745;28;20270;-79
2023/08/04 13:40:45;;;;;;;3.75;1.10;;;;;;;20.15;46.46;100250.97;20821688;28;20527;-79
2023/08/04 13:50:48;;;;;;;1.55;1.17;;;;;;;20.07;47.03;100259.91;20785877;28;20224;-80
2023/08/04 14:00:58;;;;;;;3.25;1.58;;;;;;;20.95;43.07;100265.38;20784702;28;20259;-79
2023/08/04 14:11:01;;;;;;;1.10;0.63;;;;;;;21.71;39.54;100256.66;20783303;28;20283;-79
2023/08/04 14:21:03;;;;;;;4.70;1.02;;;;;;;21.26;41.89;100270.47;20788036;28;20227;-80
2023/08/04 14:31:06;;;;;;;2.00;1.00;;;;;;;21.50;41.13;100248.03;20777150;28;20633;-80
2023/08/04 14:41:10;;;;;;;1.40;0.55;;;;;;;20.96;42.59;100267.03;20790728;28;20492;-81
2023/08/04 14:51:12;;;;;;;0.50;0.50;;;;;;;20.38;44.34;100276.47;20811644;28;20277;-81
2023/08/04 15:01:15;;;;;;;0.20;0.20;;;;;;;20.55;40.52;100275.75;20778683;28;20197;-79
2023/08/04 15:11:18;;;;;;;1.75;0.30;;;;;;;20.37;42.08;100277.69;20774648;28;20294;-80
2023/08/04 15:21:21;;;;;;;2.67;0.40;;;;;;;20.91;40.83;100273.16;20756069;28;20552;-80
2023/08/04 15:31:24;;;;;;;1.08;0.30;;;;;;;20.31;41.58;100288.66;20781647;28;20228;-80
2023/08/04 15:41:35;;;;;;;2.55;0.40;;;;;;;20.93;42.11;100288.66;20744996;28;20232;-81
2023/08/04 15:51:48;;;;;;;0.45;0.38;;;;;;;20.48;42.40;100292.88;20784678;28;20243;-81
2023/08/04 16:01:51;;;;;;;1.45;0.50;;;;;;;19.89;44.45;100300.50;20784488;28;20204;-80
2023/08/04 16:11:53;;;;;;;0.50;0.30;;;;;;;19.44;46.13;100303.72;20700886;28;20291;-80
2023/08/04 16:21:56;;;;;;;1.73;0.55;;;;;;;19.59;46.15;100316.94;20697431;28;20189;-80
2023/08/04 16:31:59;;;;;;;0.98;0.55;;;;;;;19.93;46.18;100326.28;20716820;28;20310;-80
2023/08/04 16:42:02;;;;;;;0.52;0.50;;;;;;;19.98;47.60;100341.03;20695100;28;20228;-80
2023/08/04 16:52:05;;;;;;;1.13;0.73;;;;;;;19.79;47.63;100341.22;20731349;28;20279;-82
2023/08/04 17:02:11;;;;;;;0.98;0.50;;;;;;;20.83;46.28;100345.81;20706993;28;20275;-81
2023/08/04 17:12:14;;;;;;;1.80;0.88;;;;;;;19.86;49.58;100364.16;20723074;28;20233;-81
2023/08/04 17:22:17;;;;;;;1.45;0.65;;;;;;;19.92;50.25;100365.41;20736099;28;20197;-80
2023/08/04 17:32:20;;;;;;;2.95;1.00;;;;;;;19.55;54.39;100376.84;20719791;28;20272;-82
2023/08/04 17:42:25;;;;;;;2.15;1.40;;;;;;;19.17;57.07;100380.81;20696976;28;20193;-83
2023/08/04 17:52:28;;;;;;;3.72;1.10;;;;;;;19.59;54.31;100388.31;20727895;28;20251;-84
2023/08/04 18:02:30;;;;;;;2.78;0.75;;;;;;;19.93;53.38;100391.97;20718278;28;20448;-83
2023/08/04 18:12:38;;;;;;;0.77;0.68;;;;;;;18.77;55.33;100420.53;20790964;28;20310;-82
2023/08/04 18:22:45;;;;;;;2.15;0.90;;;;;;;19.45;54.40;100428.09;20800639;28;20200;-82
2023/08/04 18:32:48;;;;;;;0.98;0.80;;;;;;;19.26;53.89;100434.72;20788270;28;20224;-82
2023/08/04 18:42:51;;;;;;;2.85;1.20;;;;;;;19.28;56.75;100447.44;20778132;28;20573;-83
2023/08/04 18:52:57;;;;;;;4.22;1.10;;;;;;;18.63;59.63;100450.44;20802572;28;20228;-82
2023/08/04 19:03:03;;;;;;;1.48;1.10;;;;;;;19.04;60.55;100459.25;20775768;28;20636;-84
2023/08/04 19:13:06;;;;;;;1.50;1.40;;;;;;;18.84;60.51;100461.38;20757620;28;20224;-83
2023/08/04 19:23:11;;;;;;;4.45;1.67;;;;;;;19.04;59.51;100473.53;20775531;28;20246;-84
2023/08/04 19:33:14;;;;;;;3.83;1.65;;;;;;;18.45;60.85;100472.06;20757958;28;20251;-83
2023/08/04 19:43:16;;;;;;;1.85;1.40;;;;;;;18.81;60.52;100472.75;20756589;28;20315;-85
2023/08/04 19:53:20;;;;;;;3.28;1.58;;;;;;;18.79;59.95;100486.56;20759808;28;20251;-82
2023/08/04 20:03:27;;;;;;;3.92;1.60;;;;;;;18.35;61.54;100492.63;20791299;28;20801;-83
2023/08/04 20:13:31;;;;;;;4.15;1.75;;;;;;;18.43;60.87;100490.78;20758984;28;20204;-82
2023/08/04 20:23:34;;;;;;;3.83;1.77;;;;;;;18.21;63.15;100495.22;20789840;28;20279;-82
2023/08/04 20:33:40;;;;;;;3.85;1.98;;;;;;;18.22;62.22;100511.09;20804174;28;20266;-82
2023/08/04 20:43:44;;;;;;;3.40;1.77;;;;;;;18.05;63.20;100520.97;20787724;28;20203;-81
2023/08/04 20:53:47;;;;;;;3.85;1.98;;;;;;;18.02;62.43;100521.72;20790378;28;20239;-82
2023/08/04 21:03:52;;;;;;;5.43;2.20;;;;;;;17.51;64.16;100524.63;20809203;28;20221;-83
2023/08/04 21:13:55;;;;;;;2.88;1.95;;;;;;;18.28;61.59;100523.84;20798891;28;20221;-84
2023/08/04 21:23:57;;;;;;;2.83;1.58;;;;;;;18.16;62.50;100536.25;20764058;28;20197;-80
2023/08/04 21:34:00;;;;;;;3.70;1.90;;;;;;;17.80;63.73;100554.53;20771719;28;20294;-81
2023/08/04 21:44:03;;;;;;;2.83;2.22;;;;;;;18.25;63.03;100565.31;20776253;28;20609;-81
2023/08/04 21:54:06;;;;;;;4.55;2.20;;;;;;;17.81;65.14;100567.59;20801998;28;20217;-83
2023/08/04 22:04:09;;;;;;;3.83;3.08;;;;;;;17.97;63.69;100578.13;20768688;28;20223;-83
2023/08/04 22:14:12;;;;;;;3.67;3.08;;;;;;;18.04;63.72;100575.44;20770329;28;20349;-81
2023/08/04 22:24:17;;;;;;;6.18;3.13;;;;;;;17.62;64.63;100581.78;20776690;28;20254;-82
2023/08/04 22:34:19;;;;;;;5.45;3.03;;;;;;;17.80;63.97;100568.78;20778048;28;20258;-83
2023/08/04 22:44:22;;;;;;;3.95;2.83;;;;;;;17.64;64.71;100578.59;20791151;28;20197;-83
2023/08/04 22:54:29;;;;;;;6.65;3.13;;;;;;;17.62;65.17;100580.97;20779101;28;20259;-81
2023/08/04 23:04:35;;;;;;;6.15;3.70;;;;;;;17.14;65.94;100577.34;20779489;28;20219;-81
2023/08/04 23:14:38;;;;;;;4.43;2.50;;;;;;;17.00;66.81;100566.44;20773779;28;20271;-81
2023/08/04 23:24:41;;;;;;;3.70;2.67;;;;;;;16.84;66.51;100566.44;20778235;28;20200;-81
2023/08/04 23:34:44;;;;;;;7.50;2.92;;;;;;;16.88;66.45;100566.53;20775839;28;20224;-81
2023/08/04 23:44:48;;;;;;;3.90;3.17;;;;;;;16.70;66.18;100565.22;20770054;28;20193;-81
2023/08/04 23:54:51;;;;;;;6.15;3.78;;;;;;;16.58;65.78;100548.25;20781575;28;20286;-82
